createdAt,value
2022-08-26T00:00:19.647Z,31.2
2022-08-26T00:01:25.785Z,29.6
2022-08-26T00:02:31.933Z,31.6
2022-08-26T00:03:37.098Z,32.3
2022-08-26T00:04:42.256Z,32
2022-08-26T00:05:48.362Z,32.7
2022-08-26T00:06:54.511Z,30.9
2022-08-26T00:08:00.661Z,31.9
2022-08-26T00:09:06.778Z,30.9
2022-08-26T00:10:12.923Z,32
2022-08-26T00:11:19.068Z,28.6
2022-08-26T00:12:25.212Z,32.2
2022-08-26T00:13:31.348Z,31
2022-08-26T00:14:37.483Z,27
2022-08-26T00:15:43.636Z,26.2
2022-08-26T00:16:49.776Z,27.6
2022-08-26T00:17:55.900Z,26.7
2022-08-26T00:19:01.051Z,26.5
2022-08-26T00:20:07.196Z,28
2022-08-26T00:21:13.331Z,27.5
2022-08-26T00:22:19.475Z,24.1
2022-08-26T00:23:25.611Z,28.9
2022-08-26T00:24:31.736Z,25.8
2022-08-26T00:25:37.914Z,25.9
2022-08-26T00:26:44.018Z,23.1
2022-08-26T00:27:50.142Z,24.2
2022-08-26T00:28:56.268Z,24.7
2022-08-26T00:30:02.411Z,25.2
2022-08-26T00:31:08.555Z,25.5
2022-08-26T00:32:14.691Z,27.4
2022-08-26T00:33:19.854Z,25.1
2022-08-26T00:34:25.992Z,25.3
2022-08-26T00:35:32.146Z,24.8
2022-08-26T00:36:38.276Z,23.9
2022-08-26T00:37:44.412Z,26.1
2022-08-26T00:38:50.545Z,28.7
2022-08-26T00:39:56.685Z,26.9
2022-08-26T00:41:02.821Z,29.2
2022-08-26T00:42:08.959Z,28.3
2022-08-26T00:43:15.107Z,30
2022-08-26T00:44:21.248Z,29.5
2022-08-26T00:45:27.386Z,28.3
2022-08-26T00:46:33.524Z,31
2022-08-26T00:47:38.692Z,31
2022-08-26T00:48:44.824Z,30.9
2022-08-26T00:49:50.954Z,32.2
2022-08-26T00:50:57.115Z,33
2022-08-26T00:52:03.253Z,30.7
2022-08-26T00:53:09.383Z,32.5
2022-08-26T00:54:15.537Z,33.2
2022-08-26T00:55:21.664Z,32.2
2022-08-26T00:56:27.811Z,34.7
2022-08-26T00:57:33.943Z,33.7
2022-08-26T00:58:40.087Z,35.4
2022-08-26T00:59:46.230Z,34.09
2022-08-26T01:00:52.366Z,38.09
2022-08-26T01:01:57.549Z,37.9
2022-08-26T01:03:03.673Z,35.9
2022-08-26T01:04:09.821Z,36.5
2022-08-26T01:05:15.956Z,36.8
2022-08-26T01:06:22.108Z,37.09
2022-08-26T01:07:28.235Z,37.4
2022-08-26T01:08:34.372Z,38.8
2022-08-26T01:09:40.527Z,38.9
2022-08-26T01:10:46.648Z,41.9
2022-08-26T01:11:52.787Z,40.59
2022-08-26T01:12:58.954Z,41.2
2022-08-26T01:14:05.084Z,40.4
2022-08-26T01:15:11.229Z,41.5
2022-08-26T01:16:16.396Z,37.09
2022-08-26T01:17:22.548Z,39.59
2022-08-26T01:18:28.668Z,38
2022-08-26T01:19:34.814Z,36.9
2022-08-26T01:20:40.956Z,42.4
2022-08-26T01:21:47.094Z,38.09
2022-08-26T01:22:53.265Z,38.9
2022-08-26T01:23:59.381Z,37
2022-08-26T01:25:05.539Z,37.4
2022-08-26T01:26:11.691Z,41.6
2022-08-26T01:27:17.818Z,41.1
2022-08-26T01:28:23.964Z,42.2
2022-08-26T01:29:30.107Z,42
2022-08-26T01:30:35.276Z,43.5
2022-08-26T01:31:41.401Z,42.7
2022-08-26T01:32:47.549Z,42.1
2022-08-26T01:33:53.684Z,45.5
2022-08-26T01:34:59.832Z,42.3
2022-08-26T01:36:05.967Z,38.4
2022-08-26T01:37:12.125Z,37.9
2022-08-26T01:38:18.252Z,38.09
2022-08-26T01:39:24.389Z,35.7
2022-08-26T01:40:30.537Z,35.09
2022-08-26T01:41:36.661Z,34.7
2022-08-26T01:42:42.807Z,31.9
2022-08-26T01:43:48.968Z,30.3
2022-08-26T01:44:54.132Z,31.1
2022-08-26T01:46:00.246Z,31.1
2022-08-26T01:47:06.375Z,30.6
2022-08-26T01:48:12.517Z,29.7
2022-08-26T01:49:18.666Z,30.7
2022-08-26T01:50:24.790Z,31.7
2022-08-26T01:51:30.945Z,30.3
2022-08-26T01:52:37.072Z,32.2
2022-08-26T01:53:43.202Z,31.3
2022-08-26T01:54:49.348Z,33.59
2022-08-26T01:55:55.492Z,34.9
2022-08-26T01:57:01.627Z,35.8
2022-08-26T01:58:07.767Z,35.09
2022-08-26T01:59:12.932Z,32.7
2022-08-26T02:00:19.061Z,33.09
2022-08-26T02:01:25.215Z,34.7
2022-08-26T02:02:31.352Z,35.5
2022-08-26T02:03:37.491Z,31.3
2022-08-26T02:04:43.639Z,33.5
2022-08-26T02:05:49.784Z,35
2022-08-26T02:06:55.932Z,35.59
2022-08-26T02:08:02.074Z,33.5
2022-08-26T02:09:08.197Z,35.2
2022-08-26T02:10:14.365Z,33.59
2022-08-26T02:11:20.515Z,33.2
2022-08-26T02:12:26.652Z,33.09
2022-08-26T02:13:32.786Z,33.9
2022-08-26T02:14:38.918Z,35
2022-08-26T02:15:45.061Z,33.9
2022-08-26T02:16:51.237Z,35.59
2022-08-26T02:17:57.352Z,37.9
2022-08-26T02:19:03.479Z,39.4
2022-08-26T02:20:09.620Z,38.3
2022-08-26T02:21:15.764Z,40.59
2022-08-26T02:22:20.945Z,41.8
2022-08-26T02:23:27.064Z,43.6
2022-08-26T02:24:33.206Z,42.7
2022-08-26T02:25:39.354Z,43.7
2022-08-26T02:26:45.508Z,45.8
2022-08-26T02:27:51.666Z,43.1
2022-08-26T02:28:57.804Z,45
2022-08-26T02:30:03.947Z,46.9
2022-08-26T02:31:10.102Z,44.1
2022-08-26T02:32:16.256Z,41
2022-08-26T02:33:22.420Z,41.4
2022-08-26T02:34:28.556Z,42.6
2022-08-26T02:35:34.706Z,42.2
2022-08-26T02:36:40.860Z,43.7
2022-08-26T02:37:47.013Z,41.1
2022-08-26T02:38:52.169Z,42.6
2022-08-26T02:39:58.324Z,44.3
2022-08-26T02:41:04.468Z,41.7
2022-08-26T02:42:10.619Z,41.8
2022-08-26T02:43:17.358Z,43
2022-08-26T02:44:22.924Z,45.7
2022-08-26T02:45:29.064Z,43
2022-08-26T02:46:35.233Z,42.5
2022-08-26T02:47:41.372Z,41.9
2022-08-26T02:48:47.510Z,44
2022-08-26T02:49:53.656Z,40.09
2022-08-26T02:50:59.801Z,41.2
2022-08-26T02:52:05.941Z,40.3
2022-08-26T02:53:12.101Z,41.5
2022-08-26T02:54:17.258Z,39.7
2022-08-26T02:55:23.403Z,42.3
2022-08-26T02:56:29.553Z,45.1
2022-08-26T02:57:35.696Z,44.7
2022-08-26T02:58:41.847Z,41.8
2022-08-26T02:59:47.992Z,41.8
2022-08-26T03:00:54.145Z,38.2
2022-08-26T03:02:00.277Z,38.8
2022-08-26T03:03:06.432Z,38.09
2022-08-26T03:04:12.578Z,39.5
2022-08-26T03:05:18.719Z,39.4
2022-08-26T03:06:24.866Z,38
2022-08-26T03:07:31.019Z,37.7
2022-08-26T03:08:37.174Z,38.4
2022-08-26T03:09:43.317Z,34.7
2022-08-26T03:10:49.454Z,34.9
2022-08-26T03:11:55.613Z,37.9
2022-08-26T03:13:01.751Z,34.5
2022-08-26T03:14:07.894Z,37.7
2022-08-26T03:15:14.040Z,34.7
2022-08-26T03:16:20.182Z,36.7
2022-08-26T03:17:26.331Z,34.8
2022-08-26T03:18:32.480Z,37.09
2022-08-26T03:19:38.622Z,34.4
2022-08-26T03:20:44.771Z,35.3
2022-08-26T03:21:50.932Z,35.2
2022-08-26T03:22:57.077Z,35.09
2022-08-26T03:24:03.211Z,35.3
2022-08-26T03:25:09.353Z,37.59
2022-08-26T03:26:15.498Z,35.8
2022-08-26T03:27:21.637Z,36.9
2022-08-26T03:28:27.801Z,37
2022-08-26T03:29:32.954Z,37.59
2022-08-26T03:30:39.099Z,40.09
2022-08-26T03:31:45.243Z,38.9
2022-08-26T03:32:51.395Z,42.5
2022-08-26T03:33:57.528Z,39.9
2022-08-26T03:35:03.679Z,41.3
2022-08-26T03:36:09.833Z,43.1
2022-08-26T03:37:15.967Z,45
2022-08-26T03:38:22.103Z,43
2022-08-26T03:39:28.266Z,47.3
2022-08-26T03:40:34.387Z,46.4
2022-08-26T03:41:40.537Z,48.3
2022-08-26T03:42:46.666Z,44.8
2022-08-26T03:43:51.834Z,45
2022-08-26T03:44:57.980Z,42.9
2022-08-26T03:46:03.149Z,42.2
2022-08-26T03:47:09.283Z,39.2
2022-08-26T03:48:15.437Z,37
2022-08-26T03:49:21.579Z,40.5
2022-08-26T03:50:27.729Z,36.4
2022-08-26T03:51:33.869Z,37.8
2022-08-26T03:52:40.013Z,36.3
2022-08-26T03:53:46.164Z,35.3
2022-08-26T03:54:52.313Z,36.09
2022-08-26T03:55:58.457Z,37
2022-08-26T03:57:04.599Z,34.59
2022-08-26T03:58:10.745Z,35.5
2022-08-26T03:59:16.886Z,35.5
2022-08-26T04:00:22.039Z,36.9
2022-08-26T04:01:28.197Z,37.09
2022-08-26T04:02:34.339Z,40.9
2022-08-26T04:03:40.485Z,37.9
2022-08-26T04:04:46.625Z,43.9
2022-08-26T04:05:52.781Z,41.6
2022-08-26T04:06:58.914Z,45.8
2022-08-26T04:08:05.053Z,43.6
2022-08-26T04:09:11.210Z,45
2022-08-26T04:10:17.346Z,49.4
2022-08-26T04:11:23.493Z,48.9
2022-08-26T04:12:29.636Z,50.7
2022-08-26T04:13:35.778Z,50
2022-08-26T04:14:40.946Z,50.7
2022-08-26T04:15:47.100Z,53.2
2022-08-26T04:16:53.251Z,53.1
2022-08-26T04:17:59.391Z,55.3
2022-08-26T04:19:05.547Z,55.6
2022-08-26T04:20:11.697Z,59
2022-08-26T04:21:17.834Z,59.6
2022-08-26T04:22:23.991Z,56.2
2022-08-26T04:23:30.127Z,57
2022-08-26T04:24:36.286Z,57.2
2022-08-26T04:25:42.431Z,58.1
2022-08-26T04:26:48.580Z,58.9
2022-08-26T04:27:54.737Z,54.5
2022-08-26T04:29:00.879Z,53.7
2022-08-26T04:30:06.043Z,60.5
2022-08-26T04:31:12.193Z,52.1
2022-08-26T04:32:18.333Z,51.8
2022-08-26T04:33:24.477Z,47.1
2022-08-26T04:34:30.647Z,47
2022-08-26T04:35:36.785Z,41.8
2022-08-26T04:36:42.950Z,40.9
2022-08-26T04:37:49.083Z,39.4
2022-08-26T04:38:55.226Z,38.8
2022-08-26T04:40:01.377Z,38.2
2022-08-26T04:41:07.515Z,36.8
2022-08-26T04:42:13.666Z,35.3
2022-08-26T04:43:19.819Z,36.8
2022-08-26T04:44:24.974Z,36.5
2022-08-26T04:45:31.138Z,36.3
2022-08-26T04:46:37.277Z,36.8
2022-08-26T04:47:43.419Z,35.8
2022-08-26T04:48:49.564Z,37.09
2022-08-26T04:49:55.704Z,34.9
2022-08-26T04:51:01.850Z,33.9
2022-08-26T04:52:07.996Z,34
2022-08-26T04:53:14.150Z,34.3
2022-08-26T04:54:20.285Z,34.2
2022-08-26T04:55:26.439Z,34.59
2022-08-26T04:56:32.584Z,33.59
2022-08-26T04:57:38.724Z,33.59
2022-08-26T04:58:43.909Z,32.8
2022-08-26T04:59:50.045Z,32.5
2022-08-26T05:00:56.189Z,33
2022-08-26T05:02:02.329Z,33.7
2022-08-26T05:03:08.471Z,31.9
2022-08-26T05:04:14.615Z,31.8
2022-08-26T05:05:20.759Z,30.6
2022-08-26T05:06:26.911Z,30.7
2022-08-26T05:07:33.050Z,32
2022-08-26T05:08:39.178Z,30.5
2022-08-26T05:09:45.299Z,31.4
2022-08-26T05:10:51.438Z,28.8
2022-08-26T05:11:57.569Z,29.1
2022-08-26T05:13:03.708Z,29.7
2022-08-26T05:14:09.838Z,27
2022-08-26T05:15:15.963Z,24.6
2022-08-26T05:16:22.083Z,25.3
2022-08-26T05:17:28.216Z,24.4
2022-08-26T05:18:34.327Z,25.5
2022-08-26T05:19:40.450Z,22.8
2022-08-26T05:20:46.562Z,23.6
2022-08-26T05:21:52.667Z,21.2
2022-08-26T05:22:58.778Z,21.7
2022-08-26T05:24:04.894Z,21.5
2022-08-26T05:25:11.008Z,21.5
2022-08-26T05:26:17.111Z,22.8
2022-08-26T05:27:23.208Z,22.6
2022-08-26T05:28:29.311Z,21.1
2022-08-26T05:29:35.399Z,21.1
2022-08-26T05:30:41.495Z,21.2
2022-08-26T05:31:47.593Z,20.8
2022-08-26T05:32:53.684Z,19.1
2022-08-26T05:33:59.765Z,19.5
2022-08-26T05:35:05.833Z,18.2
2022-08-26T05:36:11.908Z,18.6
2022-08-26T05:37:17.979Z,18.4
2022-08-26T05:38:24.048Z,17.7
2022-08-26T05:39:30.203Z,18.6
2022-08-26T05:40:36.352Z,18.79
2022-08-26T05:41:42.477Z,20
2022-08-26T05:42:48.605Z,17.1
2022-08-26T05:43:54.746Z,18.4
2022-08-26T05:45:00.869Z,19.9
2022-08-26T05:46:07.009Z,20.29
2022-08-26T05:47:13.142Z,19.9
2022-08-26T05:48:19.284Z,21.3
2022-08-26T05:49:25.427Z,21.3
2022-08-26T05:50:31.560Z,22.4
2022-08-26T05:51:37.695Z,26
2022-08-26T05:52:43.850Z,23.2
2022-08-26T05:53:50.127Z,24.1
2022-08-26T05:54:55.409Z,24.4
2022-08-26T05:56:01.545Z,21
2022-08-26T05:57:07.677Z,23.3
2022-08-26T05:58:13.814Z,22.7
2022-08-26T05:59:19.948Z,22.6
2022-08-26T06:00:26.073Z,23.1
2022-08-26T06:01:32.200Z,25.5
2022-08-26T06:02:38.355Z,22.5
2022-08-26T06:03:44.467Z,22.7
2022-08-26T06:04:50.568Z,21.4
2022-08-26T06:05:56.684Z,21.2
2022-08-26T06:07:02.800Z,23.2
2022-08-26T06:08:08.965Z,21.6
2022-08-26T06:09:15.011Z,21.1
2022-08-26T06:10:21.116Z,19
2022-08-26T06:11:27.263Z,19.6
2022-08-26T06:12:33.309Z,20.6
2022-08-26T06:13:39.400Z,17.7
2022-08-26T06:14:45.483Z,22.1
2022-08-26T06:15:51.569Z,19.79
2022-08-26T06:16:57.648Z,20.7
2022-08-26T06:18:03.728Z,23.2
2022-08-26T06:19:09.796Z,21.6
2022-08-26T06:20:15.865Z,23.4
2022-08-26T06:21:21.938Z,20.7
2022-08-26T06:22:28.132Z,22.2
2022-08-26T06:23:34.305Z,21.9
2022-08-26T06:24:40.501Z,18.9
2022-08-26T06:25:46.680Z,22.3
2022-08-26T06:26:52.910Z,23.2
2022-08-26T06:27:59.036Z,20.7
2022-08-26T06:29:05.219Z,21
2022-08-26T06:30:11.376Z,22.2
2022-08-26T06:31:17.561Z,22.3
2022-08-26T06:32:23.716Z,20.5
2022-08-26T06:33:29.882Z,21.9
2022-08-26T06:34:36.050Z,24.5
2022-08-26T06:35:42.213Z,22.3
2022-08-26T06:36:48.623Z,21.9
2022-08-26T06:37:53.908Z,21.9
2022-08-26T06:38:59.876Z,21.4
2022-08-26T06:40:05.820Z,22.4
2022-08-26T06:41:11.777Z,22.9
2022-08-26T06:42:17.729Z,22.1
2022-08-26T06:43:23.700Z,21.6
2022-08-26T06:44:29.628Z,22.1
2022-08-26T06:45:35.558Z,21.2
2022-08-26T06:46:41.508Z,22.4
2022-08-26T06:47:47.449Z,23.3
2022-08-26T06:48:53.394Z,23.1
2022-08-26T06:49:59.325Z,21.5
2022-08-26T06:51:05.269Z,21
2022-08-26T06:52:11.199Z,22
2022-08-26T06:53:17.131Z,20.6
2022-08-26T06:54:23.077Z,21.6
2022-08-26T06:55:29.003Z,21.5
2022-08-26T06:56:34.936Z,21.1
2022-08-26T06:57:40.866Z,22
2022-08-26T06:58:46.797Z,23.3
2022-08-26T06:59:52.731Z,22.2
2022-08-26T07:00:58.677Z,21.9
2022-08-26T07:02:04.606Z,18.79
2022-08-26T07:03:10.551Z,20.8
2022-08-26T07:04:16.482Z,22.3
2022-08-26T07:05:22.498Z,19.7
2022-08-26T07:06:28.516Z,20.6
2022-08-26T07:07:34.522Z,18.5
2022-08-26T07:08:40.532Z,19.7
2022-08-26T07:09:46.548Z,21.3
2022-08-26T07:10:52.556Z,20.29
2022-08-26T07:11:58.573Z,21
2022-08-26T07:13:04.572Z,20.8
2022-08-26T07:14:10.585Z,20.8
2022-08-26T07:15:16.581Z,21.6
2022-08-26T07:16:22.589Z,22.5
2022-08-26T07:17:28.625Z,22.2
2022-08-26T07:18:34.597Z,20.4
2022-08-26T07:19:40.717Z,20.4
2022-08-26T07:20:46.829Z,22.3
2022-08-26T07:21:52.944Z,24.2
2022-08-26T07:22:59.052Z,25
2022-08-26T07:24:05.174Z,23.9
2022-08-26T07:25:11.281Z,21.9
2022-08-26T07:26:17.385Z,23
2022-08-26T07:27:23.507Z,24
2022-08-26T07:28:29.621Z,21.4
2022-08-26T07:29:35.717Z,24.2
2022-08-26T07:30:41.835Z,22.7
2022-08-26T07:31:47.948Z,21.1
2022-08-26T07:32:54.040Z,22.5
2022-08-26T07:35:28.687Z,24.3
2022-08-26T07:36:33.919Z,23.3
2022-08-26T07:37:39.823Z,24.6
2022-08-26T07:38:45.728Z,23.2
2022-08-26T07:39:51.643Z,24.3
2022-08-26T07:40:57.530Z,22.7
2022-08-26T07:42:03.436Z,22.5
2022-08-26T07:43:09.324Z,24
2022-08-26T07:44:15.228Z,20.7
2022-08-26T07:45:21.149Z,23.6
2022-08-26T07:46:27.047Z,24.3
2022-08-26T07:47:32.910Z,22.2
2022-08-26T07:48:38.804Z,23.1
2022-08-26T07:49:44.701Z,23.7
2022-08-26T07:50:50.600Z,22.4
2022-08-26T07:51:56.490Z,22.2
2022-08-26T07:53:02.406Z,22.4
2022-08-26T07:54:08.289Z,24.6
2022-08-26T07:55:14.186Z,22.7
2022-08-26T07:56:20.105Z,24.9
2022-08-26T07:57:26.042Z,25.6
2022-08-26T07:58:31.915Z,25.2
2022-08-26T07:59:37.841Z,25.6
2022-08-26T08:00:43.757Z,26
2022-08-26T08:01:49.668Z,25
2022-08-26T08:02:55.596Z,26.1
2022-08-26T08:04:01.590Z,23.4
2022-08-26T08:05:07.591Z,21.8
2022-08-26T08:06:13.595Z,23.4
2022-08-26T08:07:19.592Z,22.7
2022-08-26T08:08:25.598Z,25.4
2022-08-26T08:09:31.611Z,25
2022-08-26T08:10:37.622Z,23.4
2022-08-26T08:11:43.642Z,24.6
2022-08-26T08:12:49.669Z,26
2022-08-26T08:13:55.695Z,25.6
2022-08-26T08:15:01.724Z,24.4
2022-08-26T08:16:07.752Z,24.8
2022-08-26T08:17:13.785Z,25.8
2022-08-26T08:18:19.934Z,25.5
2022-08-26T08:19:26.097Z,28.7
2022-08-26T08:20:32.255Z,26.1
2022-08-26T08:21:38.424Z,28
2022-08-26T08:22:44.579Z,26.3
2022-08-26T08:23:50.749Z,28.9
2022-08-26T08:24:56.902Z,24.2
2022-08-26T08:26:03.083Z,23.5
2022-08-26T08:27:09.252Z,26.6
2022-08-26T08:28:15.405Z,26
2022-08-26T08:29:21.566Z,27.2
2022-08-26T08:30:27.721Z,24.1
2022-08-26T08:31:33.875Z,23.9
2022-08-26T08:32:40.273Z,23
2022-08-26T08:33:45.544Z,25.2
2022-08-26T08:34:51.512Z,27.3
2022-08-26T08:35:57.433Z,24.1
2022-08-26T08:37:03.376Z,25.4
2022-08-26T08:38:09.321Z,23.8
2022-08-26T08:39:15.277Z,24.2
2022-08-26T08:40:21.201Z,27.4
2022-08-26T08:41:27.143Z,23.9
2022-08-26T08:42:33.092Z,23.9
2022-08-26T08:43:39.020Z,24.4
2022-08-26T08:44:44.957Z,27.5
2022-08-26T08:45:50.895Z,25.1
2022-08-26T08:46:56.834Z,24.4
2022-08-26T08:48:02.765Z,21.6
2022-08-26T08:49:08.717Z,24.3
2022-08-26T08:50:14.648Z,23.3
2022-08-26T08:51:20.583Z,24.3
2022-08-26T08:53:32.475Z,21.9
2022-08-26T08:54:38.377Z,24.3
2022-08-26T08:55:44.319Z,23.2
2022-08-26T08:56:50.248Z,23.3
2022-08-26T08:57:56.173Z,26.6
2022-08-26T08:59:02.124Z,25.8
2022-08-26T09:00:08.045Z,23
2022-08-26T09:01:14.072Z,24.4
2022-08-26T09:02:20.087Z,24.7
2022-08-26T09:03:26.107Z,28.3
2022-08-26T09:04:32.112Z,24.5
2022-08-26T09:05:38.138Z,24.5
2022-08-26T09:06:44.165Z,24.4
2022-08-26T09:07:50.195Z,27.2
2022-08-26T09:08:56.212Z,25.7
2022-08-26T09:10:02.244Z,25.7
2022-08-26T09:11:08.269Z,22.9
2022-08-26T09:12:14.308Z,23.6
2022-08-26T09:13:20.341Z,23.6
2022-08-26T09:14:26.374Z,25
2022-08-26T09:15:32.543Z,24.6
2022-08-26T09:16:38.687Z,23.4
2022-08-26T09:17:44.844Z,25.2
2022-08-26T09:18:51.009Z,25.9
2022-08-26T09:19:57.164Z,24.7
2022-08-26T09:21:03.310Z,27.3
2022-08-26T09:22:09.468Z,23.8
2022-08-26T09:23:15.621Z,27
2022-08-26T09:24:21.779Z,24.1
2022-08-26T09:25:27.940Z,25.9
2022-08-26T09:26:34.104Z,26.1
2022-08-26T09:27:40.250Z,24.8
2022-08-26T09:28:46.426Z,26.9
2022-08-26T09:31:21.178Z,26.9
2022-08-26T09:32:26.486Z,22.5
2022-08-26T09:33:32.433Z,26.5
2022-08-26T09:34:38.382Z,26.8
2022-08-26T09:35:44.349Z,25
2022-08-26T09:36:50.301Z,23
2022-08-26T09:37:56.268Z,23.4
2022-08-26T09:39:02.213Z,21
2022-08-26T09:40:08.171Z,22.8
2022-08-26T09:41:14.133Z,21.4
2022-08-26T09:42:20.086Z,23.9
2022-08-26T09:43:26.042Z,22.8
2022-08-26T09:44:32.005Z,22.1
2022-08-26T09:45:37.956Z,22.4
2022-08-26T09:46:43.900Z,21.1
2022-08-26T09:47:49.873Z,21.6
2022-08-26T09:48:55.806Z,22.3
2022-08-26T09:50:01.810Z,19.1
2022-08-26T09:51:07.744Z,23.1
2022-08-26T09:52:13.685Z,24.2
2022-08-26T09:53:19.647Z,22.8
2022-08-26T09:54:25.589Z,21.1
2022-08-26T09:55:31.551Z,21.1
2022-08-26T09:56:37.515Z,23.4
2022-08-26T09:57:43.455Z,19.5
2022-08-26T09:58:49.419Z,22.5
2022-08-26T09:59:55.480Z,20.9
2022-08-26T10:01:01.464Z,21.5
2022-08-26T10:02:07.506Z,23.8
2022-08-26T10:03:13.528Z,22.3
2022-08-26T10:04:19.562Z,24
2022-08-26T10:05:25.592Z,21.9
2022-08-26T10:06:31.607Z,22.8
2022-08-26T10:07:37.649Z,23.2
2022-08-26T10:08:43.677Z,21.9
2022-08-26T10:09:49.695Z,24.7
2022-08-26T10:10:55.716Z,22.1
2022-08-26T10:12:01.743Z,20.29
2022-08-26T10:13:07.768Z,22.2
2022-08-26T10:14:13.921Z,22.4
2022-08-26T10:15:20.067Z,26.1
2022-08-26T10:16:26.197Z,22.2
2022-08-26T10:17:32.336Z,22.3
2022-08-26T10:18:38.487Z,20.1
2022-08-26T10:19:44.620Z,22.5
2022-08-26T10:20:50.767Z,22.1
2022-08-26T10:21:56.902Z,22.9
2022-08-26T10:23:03.045Z,22
2022-08-26T10:24:09.170Z,24
2022-08-26T10:25:15.321Z,20.9
2022-08-26T10:26:21.456Z,20.6
2022-08-26T10:27:27.603Z,22.4
2022-08-26T10:28:33.990Z,23
2022-08-26T10:29:39.263Z,22
2022-08-26T10:30:45.199Z,21.4
2022-08-26T10:31:51.138Z,22.3
2022-08-26T10:32:57.068Z,22.3
2022-08-26T10:34:03.007Z,21.3
2022-08-26T10:35:08.952Z,20.4
2022-08-26T10:36:14.889Z,21.1
2022-08-26T10:37:20.834Z,21.1
2022-08-26T10:38:26.776Z,21.4
2022-08-26T10:39:32.722Z,21.7
2022-08-26T10:40:38.664Z,19.79
2022-08-26T10:41:44.619Z,20.9
2022-08-26T10:42:50.572Z,22.4
2022-08-26T10:43:56.511Z,19.5
2022-08-26T10:45:02.467Z,20.1
2022-08-26T10:46:08.403Z,21.8
2022-08-26T10:47:14.342Z,20.2
2022-08-26T10:48:20.294Z,19.1
2022-08-26T10:49:26.235Z,21.1
2022-08-26T10:50:32.182Z,22
2022-08-26T10:51:38.128Z,20.5
2022-08-26T10:52:44.067Z,22.2
2022-08-26T10:53:50.015Z,18.2
2022-08-26T10:54:55.962Z,22.5
2022-08-26T10:56:01.899Z,22.1
2022-08-26T10:57:07.928Z,19.29
2022-08-26T10:58:13.945Z,19.29
2022-08-26T10:59:19.985Z,24
2022-08-26T11:00:25.997Z,22
2022-08-26T11:01:32.029Z,17.29
2022-08-26T11:02:38.052Z,19.7
2022-08-26T11:03:44.086Z,21.7
2022-08-26T11:04:50.096Z,20.4
2022-08-26T11:05:56.117Z,20
2022-08-26T11:07:02.149Z,21.9
2022-08-26T11:08:08.163Z,20
2022-08-26T11:09:14.193Z,21.4
2022-08-26T11:10:20.217Z,20
2022-08-26T11:11:26.370Z,22
2022-08-26T11:12:32.512Z,19.29
2022-08-26T11:13:38.667Z,19.9
2022-08-26T11:14:44.822Z,22.4
2022-08-26T11:15:50.963Z,20.5
2022-08-26T11:16:57.107Z,19.6
2022-08-26T11:18:03.236Z,22.2
2022-08-26T11:19:09.399Z,19.6
2022-08-26T11:20:15.524Z,17.6
2022-08-26T11:21:21.669Z,18.4
2022-08-26T11:22:27.793Z,17.5
2022-08-26T11:23:33.933Z,18.79
2022-08-26T11:24:40.085Z,18.9
2022-08-26T11:27:14.787Z,19.1
2022-08-26T11:28:21.175Z,20.6
2022-08-26T11:29:26.459Z,19.79
2022-08-26T11:30:32.372Z,21.7
2022-08-26T11:31:38.311Z,20.9
2022-08-26T11:32:44.254Z,22.5
2022-08-26T11:33:50.186Z,18.1
2022-08-26T11:34:56.123Z,19.6
2022-08-26T11:36:02.065Z,17.9
2022-08-26T11:37:08.027Z,22
2022-08-26T11:38:13.946Z,16.7
2022-08-26T11:39:19.898Z,20.8
2022-08-26T11:40:25.863Z,20.1
2022-08-26T11:41:31.800Z,20.29
2022-08-26T11:42:37.757Z,19.7
2022-08-26T11:43:43.697Z,21
2022-08-26T11:44:49.656Z,21.7
2022-08-26T11:45:55.616Z,19.7
2022-08-26T11:47:01.561Z,20.6
2022-08-26T11:48:07.506Z,21.7
2022-08-26T11:49:13.487Z,21.8
2022-08-26T11:50:19.422Z,21.5
2022-08-26T11:51:25.382Z,20.2
2022-08-26T11:52:31.332Z,20.7
2022-08-26T11:53:37.301Z,21.1
2022-08-26T11:54:43.258Z,18.6
2022-08-26T11:55:49.218Z,20.4
2022-08-26T11:56:55.253Z,19.1
2022-08-26T11:58:01.301Z,18.1
2022-08-26T11:59:07.332Z,19.5
2022-08-26T12:00:13.378Z,21.9
2022-08-26T12:01:19.416Z,20.7
2022-08-26T12:02:25.464Z,16.9
2022-08-26T12:03:31.504Z,20.2
2022-08-26T12:04:37.570Z,18.79
2022-08-26T12:05:43.618Z,19.1
2022-08-26T12:06:49.663Z,21.8
2022-08-26T12:07:55.719Z,20.6
2022-08-26T12:09:01.770Z,23.1
2022-08-26T12:10:07.831Z,20.9
2022-08-26T12:11:14.017Z,21.3
2022-08-26T12:12:20.203Z,23.3
2022-08-26T12:13:26.387Z,22.8
2022-08-26T12:14:32.591Z,32.09
2022-08-26T12:15:38.765Z,24.9
2022-08-26T12:16:44.961Z,23.8
2022-08-26T12:17:51.162Z,22.5
2022-08-26T12:18:57.373Z,19.9
2022-08-26T12:20:03.582Z,22
2022-08-26T12:21:09.796Z,24.8
2022-08-26T12:22:16.012Z,24.4
2022-08-26T12:23:22.245Z,25.8
2022-08-26T12:24:28.475Z,24.5
2022-08-26T12:25:33.669Z,32.59
2022-08-26T12:26:39.711Z,43.1
2022-08-26T12:27:45.758Z,40.2
2022-08-26T12:28:51.813Z,40.59
2022-08-26T12:29:57.855Z,40.4
2022-08-26T12:31:03.923Z,40.2
2022-08-26T12:32:09.972Z,34.59
2022-08-26T12:33:16.047Z,41
2022-08-26T12:34:22.120Z,42.9
2022-08-26T12:35:28.194Z,47.7
2022-08-26T12:36:34.290Z,43
2022-08-26T12:37:40.368Z,45.7
2022-08-26T12:38:46.464Z,42
2022-08-26T12:39:52.581Z,50
2022-08-26T12:40:58.632Z,41.1
2022-08-26T12:42:04.744Z,24.3
2022-08-26T12:43:10.834Z,21.3
2022-08-26T12:44:16.926Z,20
2022-08-26T12:45:23.030Z,27.4
2022-08-26T12:46:29.131Z,19.29
2022-08-26T12:47:35.233Z,19
2022-08-26T12:48:41.358Z,19.6
2022-08-26T12:49:47.452Z,22.6
2022-08-26T12:50:53.562Z,22.8
2022-08-26T12:51:59.674Z,22.3
2022-08-26T12:53:05.870Z,23.7
2022-08-26T12:54:11.055Z,26.3
2022-08-26T12:55:17.172Z,29.5
2022-08-26T12:56:23.276Z,32.3
2022-08-26T12:57:29.384Z,30.3
2022-08-26T12:58:35.501Z,33.7
2022-08-26T12:59:41.619Z,43.4
2022-08-26T13:00:47.724Z,40.8
2022-08-26T13:01:53.842Z,44
2022-08-26T13:02:59.952Z,56.2
2022-08-26T13:04:06.068Z,57.6
2022-08-26T13:05:12.197Z,67.1
2022-08-26T13:06:18.297Z,45.8
2022-08-26T13:07:24.435Z,52.2
2022-08-26T13:08:30.540Z,53.8
2022-08-26T13:09:36.660Z,61.3
2022-08-26T13:10:42.782Z,52.1
2022-08-26T13:11:48.915Z,66.4
2022-08-26T13:12:55.040Z,63.5
2022-08-26T13:14:01.148Z,75
2022-08-26T13:15:07.275Z,53
2022-08-26T13:16:13.396Z,36.8
2022-08-26T13:17:19.524Z,40.8
2022-08-26T13:18:25.651Z,44.5
2022-08-26T13:19:31.769Z,51.6
2022-08-26T13:20:37.889Z,65.1
2022-08-26T13:21:44.084Z,60
2022-08-26T13:22:49.283Z,62.5
2022-08-26T13:23:55.407Z,46.4
2022-08-26T13:25:01.534Z,41.2
2022-08-26T13:26:07.648Z,52
2022-08-26T13:27:13.788Z,53.9
2022-08-26T13:28:19.887Z,63.3
2022-08-26T13:29:25.048Z,58.4
2022-08-26T13:30:31.177Z,52.4
2022-08-26T13:31:37.293Z,47.5
2022-08-26T13:32:43.426Z,44.6
2022-08-26T13:33:49.566Z,53.2
2022-08-26T13:34:55.696Z,56.9
2022-08-26T13:36:01.806Z,61.4
2022-08-26T13:37:07.938Z,61.8
2022-08-26T13:38:14.059Z,65.4
2022-08-26T13:39:20.180Z,64.9
2022-08-26T13:40:26.320Z,68.4
2022-08-26T13:41:32.448Z,63.2
2022-08-26T13:42:38.563Z,70.19
2022-08-26T13:43:44.690Z,71.5
2022-08-26T13:44:50.821Z,74
2022-08-26T13:45:56.922Z,72.1
2022-08-26T13:47:03.044Z,70
2022-08-26T13:48:09.171Z,67.6
2022-08-26T13:49:15.284Z,74.5
2022-08-26T13:50:21.397Z,73.19
2022-08-26T13:51:27.528Z,71.9
2022-08-26T13:52:33.631Z,72.5
2022-08-26T13:53:39.740Z,82.6
2022-08-26T13:54:45.861Z,86.5
2022-08-26T13:55:51.985Z,72.1
2022-08-26T13:56:58.183Z,73.8
2022-08-26T13:58:03.381Z,64.6
2022-08-26T13:59:09.516Z,65.6
2022-08-26T14:00:15.618Z,56.1
2022-08-26T14:01:21.735Z,49.6
2022-08-26T14:02:27.832Z,50
2022-08-26T14:03:33.938Z,56.3
2022-08-26T14:04:40.057Z,54.8
2022-08-26T14:05:46.182Z,49.3
2022-08-26T14:06:52.293Z,54.5
2022-08-26T14:07:58.383Z,51.4
2022-08-26T14:09:04.511Z,47.5
2022-08-26T14:10:10.614Z,52.2
2022-08-26T14:11:16.762Z,52.9
2022-08-26T14:12:22.828Z,53.1
2022-08-26T14:13:28.932Z,47.4
2022-08-26T14:14:35.035Z,47.7
2022-08-26T14:15:41.144Z,53.4
2022-08-26T14:16:47.243Z,54
2022-08-26T14:17:53.336Z,61.1
2022-08-26T14:18:59.445Z,54.2
2022-08-26T14:20:05.541Z,54.5
2022-08-26T14:21:11.645Z,52.7
2022-08-26T14:22:17.743Z,50.8
2022-08-26T14:23:23.841Z,56.2
2022-08-26T14:24:29.972Z,46.9
2022-08-26T14:25:36.130Z,54.2
2022-08-26T14:26:41.331Z,51
2022-08-26T14:27:47.410Z,40.9
2022-08-26T14:28:53.502Z,45.2
2022-08-26T14:29:59.612Z,50.4
2022-08-26T14:31:05.720Z,52.4
2022-08-26T14:32:11.829Z,43.2
2022-08-26T14:33:17.916Z,43.4
2022-08-26T14:34:24.018Z,53.7
2022-08-26T14:35:30.136Z,58
2022-08-26T14:36:36.242Z,52.4
2022-08-26T14:37:42.341Z,61.4
2022-08-26T14:38:48.448Z,51.6
2022-08-26T14:39:54.574Z,49
2022-08-26T14:41:00.670Z,54.3
2022-08-26T14:42:06.758Z,52.2
2022-08-26T14:43:12.875Z,42.9
2022-08-26T14:44:18.962Z,52
2022-08-26T14:45:25.078Z,49
2022-08-26T14:46:31.187Z,49
2022-08-26T14:47:37.296Z,52.6
2022-08-26T14:48:43.393Z,45.9
2022-08-26T14:49:49.494Z,46